Time;durP1;ratioP1;P1;durP2;ratioP2;P2;SDS_P1;SDS_P2;PMS_P1;PMS_P2;Temp;Humidity;BMP_temperature;BMP_pressure;BME280_temperature;BME280_humidity;BME280_pressure;Samples;Min_cycle;Max_cycle;Signal;HPM_P1;HPM_P2
2022/06/08 00:02:17;;;;;;;9.20;4.60;;;;;;;19.36;100.00;99915.28;5015880;28;20484;-86
2022/06/08 00:04:42;;;;;;;7.13;5.00;;;;;;;19.28;100.00;99910.28;5016103;28;20072;-88
2022/06/08 00:07:08;;;;;;;9.15;5.00;;;;;;;19.32;100.00;99916.81;5015779;28;20065;-85
2022/06/08 00:09:34;;;;;;;5.47;4.50;;;;;;;19.37;100.00;99914.25;5015915;28;20042;-87
2022/06/08 00:12:01;;;;;;;8.75;4.82;;;;;;;19.47;100.00;99918.03;5015725;28;20134;-86
2022/06/08 00:14:26;;;;;;;9.95;4.35;;;;;;;19.25;100.00;99910.75;5015239;28;20030;-86
2022/06/08 00:16:52;;;;;;;11.15;4.47;;;;;;;19.08;100.00;99916.81;5015000;28;20034;-85
2022/06/08 00:19:17;;;;;;;8.35;4.60;;;;;;;19.08;100.00;99916.00;5015186;28;20625;-87
2022/06/08 00:21:43;;;;;;;10.15;4.40;;;;;;;19.24;100.00;99919.84;5015038;28;20112;-86
2022/06/08 00:24:11;;;;;;;7.72;4.57;;;;;;;19.14;100.00;99919.59;5014976;28;20038;-87
2022/06/08 00:26:37;;;;;;;8.90;4.40;;;;;;;19.24;100.00;99917.97;5014467;28;20573;-87
2022/06/08 00:29:04;;;;;;;9.27;4.00;;;;;;;19.29;100.00;99922.69;5014993;28;20077;-86
2022/06/08 00:31:31;;;;;;;9.65;3.75;;;;;;;19.30;100.00;99914.34;5013419;28;20083;-87
2022/06/08 00:33:57;;;;;;;8.98;3.60;;;;;;;19.18;100.00;99915.41;5013763;28;20026;-87
2022/06/08 00:36:22;;;;;;;6.60;3.83;;;;;;;19.12;100.00;99908.28;5015028;28;20041;-87
2022/06/08 00:38:48;;;;;;;7.30;3.65;;;;;;;19.05;100.00;99911.09;5014328;28;20029;-88
2022/06/08 00:41:31;;;;;;;9.32;3.58;;;;;;;19.03;100.00;99908.63;5014962;28;20088;-87
2022/06/08 00:43:59;;;;;;;7.28;3.70;;;;;;;18.94;100.00;99904.63;5013279;28;20097;-86
2022/06/08 00:46:25;;;;;;;9.98;4.45;;;;;;;18.85;100.00;99899.84;5014783;28;20042;-89
2022/06/08 00:48:58;;;;;;;6.88;4.25;;;;;;;18.74;100.00;99908.69;5014683;28;20086;-87
2022/06/08 00:51:24;;;;;;;11.32;4.28;;;;;;;18.72;100.00;99900.88;5014205;28;20084;-88
2022/06/08 00:54:01;;;;;;;8.07;3.90;;;;;;;18.70;100.00;99900.25;5014875;28;20038;-89
2022/06/08 00:56:37;;;;;;;6.70;3.75;;;;;;;18.65;100.00;99905.53;4997653;28;20069;-89
2022/06/08 00:59:04;;;;;;;14.82;4.30;;;;;;;18.67;100.00;99902.59;5014617;28;20390;-88
2022/06/08 01:01:30;;;;;;;7.85;3.25;;;;;;;18.69;100.00;99895.97;4997360;28;20026;-86
2022/06/08 01:04:12;;;;;;;8.98;3.55;;;;;;;18.81;100.00;99899.47;5013835;28;20387;-85
2022/06/08 01:06:47;;;;;;;12.05;3.65;;;;;;;18.85;100.00;99900.66;5013325;28;20034;-85
2022/06/08 01:09:26;;;;;;;9.85;3.47;;;;;;;18.80;100.00;99900.53;5014629;28;20425;-85
2022/06/08 01:11:54;;;;;;;7.88;3.35;;;;;;;18.83;100.00;99893.88;5015597;28;20068;-87
2022/06/08 01:14:20;;;;;;;6.43;3.70;;;;;;;18.88;100.00;99896.69;5013820;28;20048;-88
2022/06/08 01:17:07;;;;;;;6.75;3.08;;;;;;;18.97;100.00;99893.44;5013052;28;20084;-87
2022/06/08 01:19:38;;;;;;;6.50;3.88;;;;;;;18.82;100.00;99895.75;5013119;28;20084;-87
2022/06/08 01:22:06;;;;;;;12.48;3.58;;;;;;;18.59;100.00;99901.06;5012731;28;20122;-88
2022/06/08 01:24:44;;;;;;;5.78;3.15;;;;;;;18.56;100.00;99896.13;5012920;28;20041;-88
2022/06/08 01:27:30;;;;;;;8.90;3.70;;;;;;;18.56;100.00;99899.63;5014791;28;20038;-88
2022/06/08 01:30:17;;;;;;;8.57;3.38;;;;;;;18.43;100.00;99896.28;5012530;28;20040;-87
2022/06/08 01:33:14;;;;;;;9.93;3.50;;;;;;;18.45;100.00;99894.22;5013276;28;20467;-87
2022/06/08 01:36:07;;;;;;;7.00;3.60;;;;;;;18.56;100.00;99888.09;5012799;28;20053;-86
2022/06/08 01:38:54;;;;;;;12.18;3.75;;;;;;;18.42;100.00;99890.13;5012737;28;20077;-86
2022/06/08 01:41:25;;;;;;;7.07;3.90;;;;;;;18.38;100.00;99882.75;5012201;28;20042;-84
2022/06/08 01:44:30;;;;;;;11.98;3.58;;;;;;;18.16;100.00;99889.69;5014298;28;20456;-85
2022/06/08 01:47:26;;;;;;;10.40;3.45;;;;;;;18.18;100.00;99877.66;5012613;28;20034;-85
2022/06/08 01:50:05;;;;;;;5.88;3.63;;;;;;;18.15;100.00;99877.31;5013912;28;20069;-86
2022/06/08 01:52:58;;;;;;;8.38;3.53;;;;;;;18.28;100.00;99887.84;5013815;28;20117;-87
2022/06/08 01:55:35;;;;;;;7.78;3.65;;;;;;;18.19;100.00;99879.31;5012992;28;20495;-87
2022/06/08 01:58:13;;;;;;;8.10;3.40;;;;;;;18.24;100.00;99881.28;5012703;28;20084;-86
2022/06/08 02:00:46;;;;;;;10.57;3.47;;;;;;;18.32;100.00;99881.00;5012799;28;20042;-86
2022/06/08 02:03:31;;;;;;;6.70;3.50;;;;;;;18.26;100.00;99879.22;4996603;28;20152;-86
2022/06/08 02:06:06;;;;;;;10.25;3.70;;;;;;;18.17;100.00;99876.03;5012522;28;20530;-87
2022/06/08 02:08:40;;;;;;;5.43;3.00;;;;;;;18.07;100.00;99875.75;5012752;28;20030;-86
2022/06/08 02:11:21;;;;;;;8.82;3.38;;;;;;;18.24;100.00;99870.56;5013947;28;20048;-85
2022/06/08 02:14:01;;;;;;;9.43;3.60;;;;;;;18.36;100.00;99866.09;5012243;28;20033;-85
2022/06/08 02:16:40;;;;;;;8.95;3.50;;;;;;;18.36;100.00;99874.13;5012446;28;20046;-87
2022/06/08 02:19:15;;;;;;;5.90;3.65;;;;;;;18.34;100.00;99870.84;5012860;28;20057;-85
2022/06/08 02:21:52;;;;;;;7.45;3.50;;;;;;;18.24;100.00;99870.56;4996590;28;20045;-86
2022/06/08 02:24:26;;;;;;;5.75;3.17;;;;;;;18.20;100.00;99872.06;5012341;28;20034;-85
2022/06/08 02:27:03;;;;;;;8.23;3.58;;;;;;;18.30;100.00;99870.47;5015133;28;20072;-86
2022/06/08 02:30:03;;;;;;;10.52;3.72;;;;;;;18.27;100.00;99864.75;5016685;28;20049;-86
2022/06/08 02:36:07;;;;;;;5.47;3.15;;;;;;;18.12;100.00;99867.03;4942948;29;20047;-86
2022/06/08 02:39:10;;;;;;;9.35;3.15;;;;;;;18.03;100.00;99859.28;4957098;29;20035;-86
2022/06/08 02:41:39;;;;;;;8.23;3.72;;;;;;;18.03;100.00;99869.19;4962747;28;20059;-85
2022/06/08 02:44:11;;;;;;;9.98;3.53;;;;;;;18.00;100.00;99870.47;4964687;28;20043;-86
2022/06/08 02:47:03;;;;;;;8.35;3.08;;;;;;;17.96;100.00;99865.81;5021094;28;20032;-86
2022/06/08 02:49:36;;;;;;;5.80;3.28;;;;;;;17.94;100.00;99866.00;5020689;28;20072;-85
2022/06/08 02:52:15;;;;;;;5.03;3.15;;;;;;;17.99;100.00;99874.22;5015739;28;20407;-85
2022/06/08 02:54:42;;;;;;;6.45;3.15;;;;;;;18.12;100.00;99872.41;5015024;28;20041;-85
2022/06/08 02:57:20;;;;;;;8.50;3.25;;;;;;;18.10;100.00;99874.50;5014900;28;20108;-86
2022/06/08 03:00:15;;;;;;;10.73;3.65;;;;;;;17.95;100.00;99877.56;5019517;28;20639;-87
2022/06/08 03:02:48;;;;;;;8.13;3.35;;;;;;;18.05;100.00;99884.03;5022494;28;20037;-84
2022/06/08 03:05:33;;;;;;;6.80;3.42;;;;;;;17.98;100.00;99880.63;5022428;28;20120;-86
2022/06/08 03:08:07;;;;;;;5.95;2.78;;;;;;;18.18;100.00;99876.84;5024395;28;20399;-86
2022/06/08 03:10:40;;;;;;;10.07;3.33;;;;;;;18.07;100.00;99887.28;5027131;28;20072;-86
2022/06/08 03:13:21;;;;;;;9.02;3.40;;;;;;;18.03;100.00;99890.66;5010079;28;20042;-84
2022/06/08 03:15:56;;;;;;;6.90;3.20;;;;;;;17.99;100.00;99895.66;5028369;28;20060;-85
2022/06/08 03:18:22;;;;;;;7.68;3.17;;;;;;;18.08;100.00;99899.66;5020570;28;20030;-85
2022/06/08 03:20:48;;;;;;;5.95;3.38;;;;;;;18.05;100.00;99894.75;5015436;28;20069;-85
2022/06/08 03:23:15;;;;;;;12.27;3.67;;;;;;;18.05;100.00;99900.13;5020053;28;20129;-87
2022/06/08 03:25:41;;;;;;;10.52;3.83;;;;;;;18.00;100.00;99897.28;5019657;28;20463;-83
2022/06/08 03:28:12;;;;;;;7.57;3.63;;;;;;;17.97;100.00;99907.63;5015583;28;20061;-87
2022/06/08 03:30:40;;;;;;;8.30;3.70;;;;;;;17.93;100.00;99919.88;5015381;28;20061;-86
2022/06/08 03:33:06;;;;;;;8.63;3.45;;;;;;;17.77;100.00;99915.91;5014966;28;20034;-86
2022/06/08 03:35:32;;;;;;;10.38;3.80;;;;;;;17.66;100.00;99915.84;5017914;28;20037;-87
2022/06/08 03:37:59;;;;;;;10.65;4.13;;;;;;;17.65;100.00;99920.38;5016171;28;20026;-84
2022/06/08 03:40:27;;;;;;;12.30;4.22;;;;;;;17.51;100.00;99919.66;5016208;28;20395;-86
2022/06/08 03:42:56;;;;;;;6.38;4.03;;;;;;;17.45;100.00;99922.41;5017452;28;20492;-88
2022/06/08 03:45:22;;;;;;;8.70;3.60;;;;;;;17.39;100.00;99920.63;5016902;28;20044;-87
2022/06/08 03:47:51;;;;;;;6.80;3.50;;;;;;;17.50;100.00;99925.22;5017471;28;20064;-87
2022/06/08 03:50:24;;;;;;;7.82;3.60;;;;;;;17.63;100.00;99927.84;5019390;28;20045;-86
2022/06/08 03:53:00;;;;;;;5.40;3.50;;;;;;;17.81;100.00;99930.50;5006370;28;20041;-84
2022/06/08 03:55:28;;;;;;;8.77;3.47;;;;;;;17.82;100.00;99925.97;5025532;28;20044;-87
2022/06/08 03:57:57;;;;;;;9.90;3.95;;;;;;;17.91;100.00;99930.81;5007397;28;20034;-87
2022/06/08 04:00:24;;;;;;;7.05;3.42;;;;;;;17.76;100.00;99934.91;5020174;28;20022;-86
2022/06/08 04:03:01;;;;;;;7.28;3.97;;;;;;;17.88;100.00;99936.63;5023707;28;20022;-86
2022/06/08 04:05:28;;;;;;;8.90;3.67;;;;;;;17.85;100.00;99937.06;5021073;28;20092;-86
2022/06/08 04:07:56;;;;;;;7.82;3.85;;;;;;;17.77;100.00;99939.22;5015379;28;20041;-84
2022/06/08 04:10:22;;;;;;;7.28;3.65;;;;;;;18.04;100.00;99941.38;5017905;28;20034;-85
2022/06/08 04:12:51;;;;;;;10.27;3.92;;;;;;;18.20;100.00;99944.47;5017159;28;20120;-85
2022/06/08 04:18:02;;;;;;;8.52;3.92;;;;;;;18.26;100.00;99949.75;5016560;28;20495;-86
2022/06/08 04:20:28;;;;;;;11.55;4.78;;;;;;;18.24;100.00;99943.00;5017444;28;20033;-84
2022/06/08 04:22:54;;;;;;;8.70;3.80;;;;;;;18.23;100.00;99946.75;5015742;28;20040;-84
2022/06/08 04:25:20;;;;;;;10.15;3.83;;;;;;;18.21;100.00;99943.44;5017500;28;20053;-86
2022/06/08 04:27:48;;;;;;;12.55;4.15;;;;;;;18.15;100.00;99942.50;5019063;28;20064;-87
2022/06/08 04:30:14;;;;;;;8.52;4.28;;;;;;;18.16;100.00;99946.00;5016228;28;20548;-87
2022/06/08 04:32:40;;;;;;;11.07;4.38;;;;;;;18.19;100.00;99937.50;5016799;28;20467;-88
2022/06/08 04:35:11;;;;;;;12.10;4.35;;;;;;;18.18;100.00;99943.91;5001114;28;20044;-90
2022/06/08 04:37:37;;;;;;;11.93;4.07;;;;;;;18.23;100.00;99946.75;4978091;28;20093;-89
2022/06/08 04:40:07;;;;;;;10.77;4.60;;;;;;;18.24;100.00;99946.50;5011034;28;20034;-87
2022/06/08 04:42:32;;;;;;;8.57;3.90;;;;;;;18.35;100.00;99947.59;5010778;28;20045;-87
2022/06/08 04:44:59;;;;;;;18.83;4.38;;;;;;;18.45;100.00;99945.22;4993493;28;20124;-90
2022/06/08 04:47:25;;;;;;;9.50;4.07;;;;;;;18.50;100.00;99940.00;4979869;28;20038;-89
2022/06/08 04:49:51;;;;;;;8.82;4.32;;;;;;;18.59;100.00;99949.38;4994695;28;20037;-87
2022/06/08 04:52:18;;;;;;;10.30;4.32;;;;;;;18.75;100.00;99950.59;4994187;28;20034;-87
2022/06/08 04:54:44;;;;;;;11.02;4.22;;;;;;;18.80;100.00;99951.53;4994027;28;20040;-86
2022/06/08 04:57:13;;;;;;;14.10;3.92;;;;;;;18.96;100.00;99948.19;4996987;28;20043;-85
2022/06/08 04:59:40;;;;;;;12.85;3.90;;;;;;;19.14;100.00;99946.47;4994821;28;20053;-86
2022/06/08 05:03:00;;;;;;;11.13;4.68;;;;;;;19.23;100.00;99951.25;5027092;28;20038;-84
2022/06/08 05:05:04;;;;;;;14.45;4.20;;;;;;;19.17;100.00;99954.06;4991211;28;20056;-84
2022/06/08 05:07:30;;;;;;;9.23;4.07;;;;;;;19.14;100.00;99946.47;5030566;28;20045;-87
2022/06/08 05:09:56;;;;;;;12.82;4.80;;;;;;;19.18;100.00;99944.97;4995816;28;20376;-85
2022/06/08 05:12:25;;;;;;;13.90;4.95;;;;;;;19.22;100.00;99948.84;4996305;28;20042;-87
2022/06/08 05:14:50;;;;;;;10.55;4.75;;;;;;;19.32;100.00;99955.25;5028034;28;20054;-87
2022/06/08 05:17:16;;;;;;;9.45;4.80;;;;;;;19.42;100.00;99957.41;4994478;28;20034;-86
2022/06/08 05:19:45;;;;;;;13.05;3.95;;;;;;;19.50;100.00;99951.66;5027250;28;20480;-86
2022/06/08 05:22:17;;;;;;;13.30;3.23;;;;;;;19.67;100.00;99952.59;4995269;28;20053;-87
2022/06/08 05:24:43;;;;;;;14.80;4.70;;;;;;;19.80;100.00;99948.84;4996692;28;20109;-86
2022/06/08 05:27:27;;;;;;;15.35;5.07;;;;;;;19.92;100.00;99955.84;5000119;28;20057;-88
2022/06/08 05:29:56;;;;;;;18.88;4.82;;;;;;;20.00;100.00;99944.72;5014410;28;20026;-88
2022/06/08 05:32:35;;;;;;;17.00;4.47;;;;;;;20.14;100.00;99953.34;5027856;28;20034;-87
2022/06/08 05:35:01;;;;;;;14.30;4.80;;;;;;;20.24;100.00;99958.94;5048391;28;20131;-88
2022/06/08 05:37:30;;;;;;;13.82;5.13;;;;;;;20.29;100.00;99952.84;5047683;28;20011;-87
2022/06/08 05:39:56;;;;;;;17.85;5.10;;;;;;;20.43;100.00;99959.59;5023776;28;20038;-89
2022/06/08 05:42:23;;;;;;;10.45;5.00;;;;;;;20.60;100.00;99963.16;5002963;28;20094;-88
2022/06/08 05:44:49;;;;;;;13.18;6.03;;;;;;;20.68;100.00;99964.66;5004051;28;20066;-90
2022/06/08 05:52:40;;;;;;;8.05;4.45;;;;;;;21.29;100.00;99970.06;4893263;26;20012;-92
2022/06/08 05:55:07;;;;;;;11.23;5.13;;;;;;;21.49;100.00;99966.84;4984931;28;20078;-88
2022/06/08 05:57:36;;;;;;;17.60;5.28;;;;;;;21.83;100.00;99967.63;5015233;23;20050;-87
2022/06/08 06:00:09;;;;;;;9.15;4.70;;;;;;;22.16;100.00;99970.25;5016990;28;20080;-91
2022/06/08 06:02:55;;;;;;;11.90;4.72;;;;;;;22.41;100.00;99975.13;5019680;28;20462;-86
2022/06/08 06:05:28;;;;;;;9.38;4.63;;;;;;;22.66;100.00;99972.75;5018364;28;20073;-88
2022/06/08 06:07:57;;;;;;;6.88;4.70;;;;;;;22.64;100.00;99969.44;5017499;28;20033;-86
2022/06/08 06:10:30;;;;;;;6.32;4.30;;;;;;;23.01;98.56;99973.09;5002174;28;20123;-89
2022/06/08 06:12:56;;;;;;;12.50;5.03;;;;;;;23.42;95.11;99968.06;5017087;28;20545;-88
2022/06/08 06:15:29;;;;;;;10.98;6.05;;;;;;;23.73;95.04;99978.00;5001153;28;20064;-89
2022/06/08 06:17:55;;;;;;;9.27;5.20;;;;;;;23.85;96.71;99975.09;5016801;28;20034;-86
2022/06/08 06:20:21;;;;;;;13.50;6.53;;;;;;;23.41;92.75;99974.53;4999261;28;20052;-84
2022/06/08 06:23:14;;;;;;;16.95;6.38;;;;;;;23.70;96.21;99975.81;5016646;28;20427;-86
2022/06/08 06:25:59;;;;;;;13.73;5.95;;;;;;;23.60;97.31;99973.03;5015406;28;20042;-89
2022/06/08 06:28:39;;;;;;;7.63;4.13;;;;;;;23.49;88.95;99979.47;5019349;28;20033;-88
2022/06/08 06:31:21;;;;;;;9.40;4.20;;;;;;;24.73;82.32;99982.25;5017461;28;20117;-90
2022/06/08 06:34:10;;;;;;;13.73;4.25;;;;;;;25.93;78.35;99975.22;5017405;28;20038;-88
2022/06/08 06:36:36;;;;;;;10.38;4.03;;;;;;;25.24;81.04;99985.88;5015953;28;20029;-87
2022/06/08 06:39:03;;;;;;;6.35;3.90;;;;;;;25.04;79.88;99988.56;5015991;28;20034;-89
2022/06/08 06:41:32;;;;;;;8.15;3.85;;;;;;;24.81;78.59;99981.75;5000497;28;20038;-88
2022/06/08 06:44:00;;;;;;;7.30;3.22;;;;;;;24.92;77.77;99986.13;4999734;28;20129;-87
2022/06/08 06:46:36;;;;;;;6.75;3.83;;;;;;;24.14;78.78;99985.31;5015616;28;20041;-86
2022/06/08 06:49:07;;;;;;;6.78;3.00;;;;;;;23.65;82.17;99976.63;5016158;28;20427;-89
2022/06/08 06:51:34;;;;;;;5.30;3.10;;;;;;;23.56;83.49;99972.78;5017210;28;20157;-90
2022/06/08 06:54:01;;;;;;;9.23;3.38;;;;;;;23.50;80.80;99967.56;5016778;28;20120;-87
2022/06/08 06:56:27;;;;;;;5.95;2.78;;;;;;;23.87;80.68;99965.66;5016517;28;20480;-87
2022/06/08 06:59:02;;;;;;;8.10;2.90;;;;;;;23.79;80.82;99965.34;5003169;28;20082;-88
2022/06/08 07:01:29;;;;;;;9.18;2.80;;;;;;;23.75;80.03;99970.47;5017421;28;20065;-91
2022/06/08 07:03:57;;;;;;;4.75;2.20;;;;;;;23.51;80.17;99969.19;5018772;28;20034;-88
2022/06/08 07:06:32;;;;;;;5.53;2.45;;;;;;;23.51;81.02;99963.78;5000775;28;20092;-88
2022/06/08 07:09:00;;;;;;;4.00;2.25;;;;;;;23.42;81.75;99959.94;5017417;28;20069;-90
2022/06/08 07:11:40;;;;;;;9.27;2.40;;;;;;;23.37;82.06;99970.69;5017533;28;20025;-92
2022/06/08 07:14:20;;;;;;;5.30;1.65;;;;;;;23.22;78.74;99965.16;5004334;28;20092;-89
2022/06/08 07:16:56;;;;;;;4.20;1.85;;;;;;;23.00;80.13;99967.97;5020815;28;20034;-89
2022/06/08 07:19:27;;;;;;;5.80;1.38;;;;;;;23.32;73.90;99965.25;5038466;28;20030;-88
2022/06/08 07:21:55;;;;;;;2.92;1.63;;;;;;;23.68;77.61;99964.44;5038998;28;20033;-89
2022/06/08 07:24:30;;;;;;;5.20;1.63;;;;;;;24.33;76.97;99969.41;5036824;28;20125;-90
2022/06/08 07:26:59;;;;;;;3.67;1.73;;;;;;;25.23;73.19;99975.28;5027359;28;20046;-88
2022/06/08 07:29:27;;;;;;;1.73;0.90;;;;;;;25.64;65.79;99976.94;5019365;28;20550;-87
2022/06/08 07:31:52;;;;;;;3.53;1.00;;;;;;;26.07;65.07;99970.03;5014934;28;20030;-88
2022/06/08 07:34:18;;;;;;;3.20;0.70;;;;;;;26.55;61.62;99966.56;5016623;28;20026;-86
2022/06/08 07:36:47;;;;;;;3.53;0.90;;;;;;;27.50;60.34;99968.91;4998832;28;20045;-85
2022/06/08 07:39:15;;;;;;;4.50;1.40;;;;;;;27.92;50.63;99960.84;5016059;28;20065;-89
2022/06/08 07:41:46;;;;;;;8.27;3.83;;;;;;;27.32;51.11;99966.84;5016932;28;20029;-93
2022/06/08 07:44:12;;;;;;;3.20;1.02;;;;;;;27.46;52.25;99973.31;5018236;28;20483;-91
2022/06/08 07:46:41;;;;;;;2.28;1.00;;;;;;;28.06;49.32;99964.53;5017059;28;20057;-91
2022/06/08 07:51:53;;;;;;;3.80;1.40;;;;;;;27.78;50.58;99957.19;5015641;28;20411;-91
2022/06/08 07:54:24;;;;;;;4.15;1.30;;;;;;;27.72;52.02;99966.50;5017245;28;20042;-86
2022/06/08 07:56:51;;;;;;;4.18;1.80;;;;;;;27.61;53.70;99960.34;5017274;28;20479;-88
2022/06/08 07:59:18;;;;;;;4.15;1.67;;;;;;;27.60;55.65;99950.59;5019031;28;20033;-86
2022/06/08 08:01:47;;;;;;;10.10;2.15;;;;;;;27.78;54.69;99957.19;5022326;28;20030;-89
2022/06/08 08:04:18;;;;;;;3.40;1.50;;;;;;;27.97;53.32;99949.91;5018263;28;20038;-88
2022/06/08 08:06:50;;;;;;;5.72;1.67;;;;;;;28.18;52.61;99947.75;5017064;28;20046;-91
2022/06/08 08:09:22;;;;;;;3.20;1.20;;;;;;;28.00;51.84;99954.78;5018602;28;20046;-88
2022/06/08 08:11:52;;;;;;;5.20;1.70;;;;;;;27.82;52.85;99950.06;5018079;28;20057;-87
2022/06/08 08:14:22;;;;;;;3.88;1.85;;;;;;;27.16;54.64;99947.97;4998470;28;20046;-90
2022/06/08 08:16:49;;;;;;;3.50;1.63;;;;;;;26.99;56.67;99947.53;5019690;28;20038;-89
2022/06/08 08:19:17;;;;;;;6.00;1.85;;;;;;;27.56;56.62;99937.81;5032610;28;20024;-86
2022/06/08 08:21:56;;;;;;;8.70;2.78;;;;;;;27.52;58.94;99932.13;5038708;28;20026;-90
2022/06/08 08:24:28;;;;;;;9.55;2.70;;;;;;;27.11;58.30;99936.31;5037827;28;20022;-91
2022/06/08 08:27:00;;;;;;;5.07;2.50;;;;;;;27.30;57.49;99931.78;5017547;28;20038;-93
2022/06/08 08:32:10;;;;;;;4.43;1.95;;;;;;;27.56;56.30;99927.75;1303991;26;20061;-91
2022/06/08 08:34:41;;;;;;;3.22;2.30;;;;;;;27.46;57.11;99935.19;5005340;28;20163;-90
2022/06/08 08:37:07;;;;;;;4.40;2.60;;;;;;;26.51;60.40;99929.38;5016540;28;20384;-89
2022/06/08 08:39:36;;;;;;;3.95;2.40;;;;;;;26.00;62.99;99923.34;5020625;28;20058;-88
2022/06/08 08:42:22;;;;;;;5.28;2.38;;;;;;;26.22;61.23;99928.44;5003014;28;20557;-88
2022/06/08 08:45:01;;;;;;;8.32;2.33;;;;;;;26.92;59.43;99927.19;5004115;28;20050;-88
2022/06/08 08:47:55;;;;;;;3.47;1.60;;;;;;;27.66;59.50;99922.19;4995457;28;20499;-85
2022/06/08 08:50:23;;;;;;;6.68;2.30;;;;;;;27.98;55.66;99924.25;5013890;28;20045;-85
2022/06/08 08:53:02;;;;;;;10.20;1.85;;;;;;;28.36;53.91;99925.19;5018422;28;20026;-85
2022/06/08 08:55:36;;;;;;;5.53;1.95;;;;;;;28.47;53.77;99926.63;5012557;28;20049;-83
2022/06/08 08:58:07;;;;;;;6.45;2.10;;;;;;;28.27;52.97;99926.13;5009468;28;20037;-83
2022/06/08 09:00:37;;;;;;;7.23;1.77;;;;;;;28.50;53.87;99917.09;5010996;28;20425;-84
2022/06/08 09:03:26;;;;;;;7.10;2.65;;;;;;;28.68;54.54;99921.72;5019047;28;20046;-84
2022/06/08 09:05:57;;;;;;;3.85;1.70;;;;;;;28.32;51.24;99917.88;4989608;28;20080;-87
2022/06/08 09:08:24;;;;;;;4.32;1.40;;;;;;;28.33;51.35;99919.50;5026047;28;20120;-86
2022/06/08 09:10:52;;;;;;;3.30;0.98;;;;;;;28.32;50.45;99923.31;5025410;28;20058;-90
2022/06/08 09:13:31;;;;;;;3.67;1.58;;;;;;;28.33;52.34;99914.88;5018676;28;20018;-90
2022/06/08 09:15:59;;;;;;;5.63;1.33;;;;;;;28.32;50.84;99923.31;5019819;28;20038;-94
2022/06/08 09:18:39;;;;;;;4.78;1.27;;;;;;;28.33;50.88;99914.06;5018051;28;20030;-88
2022/06/08 09:21:37;;;;;;;4.47;1.60;;;;;;;28.74;50.79;99917.81;5022471;28;20120;-89
2022/06/08 09:24:29;;;;;;;2.67;2.00;;;;;;;28.59;49.80;99918.84;5025566;28;20038;-89
2022/06/08 09:26:59;;;;;;;;;;;;;;;28.31;52.80;99913.50;5004135;28;20034;-89
2022/06/08 09:29:29;;;;;;;3.60;1.30;;;;;;;27.89;48.12;99904.22;5001191;28;19921;-86
2022/06/08 09:31:56;;;;;;;5.60;1.27;;;;;;;28.05;49.18;99908.38;5006955;28;20109;-88
2022/06/08 09:34:32;;;;;;;2.03;0.95;;;;;;;28.51;48.74;99902.31;5016556;28;20483;-87
2022/06/08 09:37:27;;;;;;;3.40;1.27;;;;;;;28.72;49.33;99906.41;5020688;28;20470;-92
2022/06/08 09:43:34;;;;;;;2.25;1.10;;;;;;;28.03;49.33;99899.69;5232597;23;20086;-93
2022/06/08 09:46:23;;;;;;;4.00;1.40;;;;;;;27.69;50.33;99888.13;4913745;29;20066;-93
2022/06/08 09:52:56;;;;;;;1.88;1.10;;;;;;;27.17;49.46;99883.47;4913163;29;20207;-92
2022/06/08 09:55:42;;;;;;;6.82;1.00;;;;;;;27.35;49.93;99887.38;4909529;29;20055;-93
2022/06/08 09:58:25;;;;;;;2.50;0.90;;;;;;;27.73;49.35;99878.28;4865761;29;20068;-87
2022/06/08 10:00:58;;;;;;;6.55;1.27;;;;;;;28.09;48.29;99892.28;4897819;29;20061;-92
2022/06/08 10:03:30;;;;;;;2.03;0.85;;;;;;;28.78;47.79;99888.84;4888883;29;20132;-91
2022/06/08 10:09:37;;;;;;;3.70;0.95;;;;;;;29.36;44.49;99893.91;3048753;26;20086;-90
2022/06/08 10:12:24;;;;;;;4.50;0.88;;;;;;;28.54;39.72;99885.38;4916282;29;20079;-93
2022/06/08 10:17:54;;;;;;;;;;;;;;;;;;;;;
2022/06/08 10:21:37;;;;;;;5.25;1.38;;;;;;;28.98;45.17;99877.59;5024802;23;20089;-93
2022/06/08 10:24:17;;;;;;;3.28;1.08;;;;;;;28.84;43.61;99879.47;5019631;28;20109;-92
2022/06/08 10:27:07;;;;;;;;;;;;;;;;;;;;;
2022/06/08 10:32:48;;;;;;;4.83;1.30;;;;;;;28.23;45.03;99866.75;4964227;28;20134;-93
2022/06/08 10:36:21;;;;;;;;;;;;;;;;;;;;;
2022/06/08 10:39:31;;;;;;;3.25;1.42;;;;;;;28.51;44.58;99862.25;4980441;28;20081;-92
2022/06/08 10:57:52;;;;;;;4.70;1.67;;;;;;;27.61;48.33;99845.19;4967907;28;20122;-83
2022/06/08 11:00:20;;;;;;;8.18;4.90;;;;;;;27.66;47.93;99839.69;4974955;28;20035;-85
2022/06/08 11:03:03;;;;;;;2.50;1.00;;;;;;;28.13;47.38;99839.66;4974720;28;20043;-89
2022/06/08 11:05:39;;;;;;;3.50;1.50;;;;;;;28.23;46.18;99836.78;4966732;28;20050;-90
2022/06/08 11:08:17;;;;;;;3.42;1.05;;;;;;;28.08;46.11;99836.97;4970822;28;20053;-89
2022/06/08 11:11:00;;;;;;;3.42;1.70;;;;;;;28.11;46.35;99830.94;4987973;28;20035;-85
2022/06/08 11:13:28;;;;;;;3.83;1.70;;;;;;;28.45;45.78;99825.25;5019951;28;20026;-87
2022/06/08 11:16:06;;;;;;;3.95;1.65;;;;;;;28.44;46.12;99828.31;5056345;28;20085;-90
2022/06/08 11:19:14;;;;;;;8.63;3.67;;;;;;;28.14;46.55;99818.63;5059249;28;20037;-90
2022/06/08 11:21:47;;;;;;;5.57;1.75;;;;;;;28.05;46.33;99815.75;5043659;28;20040;-91
2022/06/08 11:24:36;;;;;;;20.98;2.30;;;;;;;27.58;46.51;99811.19;5002658;28;20115;-90
2022/06/08 11:27:11;;;;;;;3.67;1.92;;;;;;;27.56;47.17;99807.13;5017240;28;20076;-87
2022/06/08 11:29:43;;;;;;;2.45;1.27;;;;;;;27.58;47.21;99800.28;5020295;28;20049;-86
2022/06/08 11:32:32;;;;;;;2.17;1.38;;;;;;;27.85;47.49;99805.13;5018059;28;20101;-91
2022/06/08 11:35:03;;;;;;;4.28;1.90;;;;;;;27.81;47.67;99795.91;5006332;28;20077;-88
2022/06/08 11:37:47;;;;;;;4.33;2.07;;;;;;;27.94;47.77;99791.69;5019132;28;20069;-89
2022/06/08 11:40:24;;;;;;;4.65;2.78;;;;;;;27.54;50.04;99782.13;4999300;28;20092;-90
2022/06/08 11:42:59;;;;;;;5.95;2.03;;;;;;;27.43;49.08;99778.69;5008587;28;20041;-89
2022/06/08 11:45:39;;;;;;;5.30;2.80;;;;;;;27.47;47.82;99776.22;5026661;28;20023;-89
2022/06/08 11:48:26;;;;;;;4.05;1.95;;;;;;;27.52;46.97;99768.00;5037971;28;20037;-88
2022/06/08 11:50:58;;;;;;;8.27;1.80;;;;;;;27.58;47.47;99777.69;5021307;28;20065;-90
2022/06/08 11:53:39;;;;;;;7.72;2.30;;;;;;;27.13;49.51;99765.44;5013989;28;20037;-89
2022/06/08 11:56:20;;;;;;;4.82;2.25;;;;;;;27.32;49.33;99758.13;5019877;28;20038;-90
2022/06/08 11:58:52;;;;;;;4.53;2.20;;;;;;;27.45;48.14;99756.63;5016282;28;20026;-86
2022/06/08 12:01:20;;;;;;;;;;;;;;;27.45;48.56;99753.91;5023808;28;20046;-86
2022/06/08 12:03:56;;;;;;;4.95;2.65;;;;;;;27.42;49.37;99749.84;5023461;28;20363;-88
2022/06/08 12:06:31;;;;;;;4.25;2.70;;;;;;;27.24;49.68;99745.97;5019097;28;20045;-87
2022/06/08 12:11:57;;;;;;;7.68;2.08;;;;;;;27.14;49.21;99742.59;5025194;28;20056;-90
2022/06/08 12:14:31;;;;;;;11.68;2.70;;;;;;;27.33;50.02;99748.88;5021623;28;20430;-91
2022/06/08 12:17:06;;;;;;;3.75;2.20;;;;;;;27.40;48.60;99743.06;5021006;28;20034;-92
2022/06/08 12:20:09;;;;;;;7.38;1.45;;;;;;;27.50;48.42;99738.34;5022731;28;20037;-92
2022/06/08 12:22:39;;;;;;;4.72;2.00;;;;;;;27.22;49.63;99731.03;5024477;28;20511;-89
2022/06/08 12:25:14;;;;;;;3.13;2.10;;;;;;;27.43;49.06;99732.41;5023692;28;20487;-93
2022/06/08 12:27:47;;;;;;;4.57;2.28;;;;;;;27.55;48.10;99727.38;5024811;28;20221;-90
2022/06/08 12:30:23;;;;;;;3.95;1.63;;;;;;;27.57;48.81;99727.91;5004797;28;20037;-89
2022/06/08 12:32:55;;;;;;;5.57;1.50;;;;;;;27.73;47.92;99731.22;5021030;28;20034;-91
2022/06/08 12:35:51;;;;;;;7.00;1.73;;;;;;;27.73;47.01;99731.22;5005588;28;20042;-91
2022/06/08 12:38:33;;;;;;;3.53;2.05;;;;;;;27.68;47.90;99723.94;5019162;28;20056;-91
2022/06/08 12:41:11;;;;;;;3.63;1.85;;;;;;;27.82;47.48;99728.66;5023887;28;20118;-90
2022/06/08 12:44:03;;;;;;;4.55;1.85;;;;;;;27.67;47.99;99726.97;5016388;28;20030;-90
2022/06/08 12:46:34;;;;;;;4.85;1.60;;;;;;;27.61;48.06;99728.09;5014488;28;20056;-89
2022/06/08 12:49:14;;;;;;;4.43;1.63;;;;;;;27.52;48.49;99729.88;5019803;28;21539;-92
2022/06/08 12:51:47;;;;;;;5.35;1.73;;;;;;;27.62;48.49;99713.41;5013573;28;20037;-91
2022/06/08 12:54:37;;;;;;;5.95;1.50;;;;;;;27.51;48.79;99717.38;5026938;28;20042;-88
2022/06/08 12:57:24;;;;;;;3.78;1.45;;;;;;;27.62;47.75;99716.94;5024084;28;20030;-89
2022/06/08 13:02:39;;;;;;;5.68;1.88;;;;;;;27.34;47.77;99717.03;1200352;26;20120;-89